createdAt,value
2022-07-31T00:00:21.374Z,2.35
2022-07-31T00:04:25.786Z,1.77
2022-07-31T00:08:31.030Z,2.58
2022-07-31T00:12:36.208Z,2.70
2022-07-31T00:16:40.258Z,2.35
2022-07-31T00:20:46.636Z,3.50
2022-07-31T00:24:51.618Z,2.58
2022-07-31T00:28:57.617Z,2.83
2022-07-31T00:33:01.572Z,3.03
2022-07-31T00:37:05.407Z,2.92
2022-07-31T00:41:10.969Z,3.13
2022-07-31T00:45:14.264Z,2.80
2022-07-31T00:49:18.898Z,3.17
2022-07-31T00:53:22.433Z,2.28
2022-07-31T00:57:30.260Z,2.92
2022-07-31T01:01:34.588Z,2.83
2022-07-31T01:05:37.984Z,2.65
2022-07-31T01:09:42.309Z,3.63
2022-07-31T01:13:52.006Z,2.25
2022-07-31T01:17:57.092Z,2.35
2022-07-31T01:22:33.204Z,3.25
2022-07-31T01:26:48.063Z,2.55
2022-07-31T01:31:17.126Z,2.50
2022-07-31T01:35:27.127Z,2.97
2022-07-31T01:39:35.286Z,2.97
2022-07-31T01:43:42.150Z,2.65
2022-07-31T01:47:52.098Z,3.05
2022-07-31T01:52:04.295Z,2.53
2022-07-31T01:56:10.579Z,2.60
2022-07-31T02:00:34.581Z,2.58
2022-07-31T02:04:41.541Z,3.22
2022-07-31T02:08:46.757Z,2.65
2022-07-31T02:12:57.134Z,3.20
2022-07-31T02:17:02.315Z,2.83
2022-07-31T02:21:07.422Z,2.60
2022-07-31T02:25:13.349Z,2.63
2022-07-31T02:29:20.104Z,3.10
2022-07-31T02:33:27.489Z,3.22
2022-07-31T02:37:36.268Z,2.45
2022-07-31T02:41:40.280Z,3.08
2022-07-31T02:45:44.407Z,2.78
2022-07-31T02:49:48.468Z,3.40
2022-07-31T02:53:54.165Z,3.28
2022-07-31T02:57:57.814Z,3.35
2022-07-31T03:02:02.111Z,3.40
2022-07-31T03:06:08.543Z,3.10
2022-07-31T03:10:15.978Z,3.30
2022-07-31T03:14:21.587Z,3.20
2022-07-31T03:18:27.843Z,2.80
2022-07-31T03:22:31.471Z,3.08
2022-07-31T03:26:38.537Z,3.22
2022-07-31T03:30:42.362Z,3.38
2022-07-31T03:34:45.751Z,3.17
2022-07-31T03:38:50.795Z,3.92
2022-07-31T03:42:58.028Z,3.15
2022-07-31T03:47:01.846Z,2.97
2022-07-31T03:51:06.562Z,3.88
2022-07-31T03:55:11.200Z,3.40
2022-07-31T03:59:17.526Z,3.65
2022-07-31T04:03:21.861Z,3.20
2022-07-31T04:07:27.374Z,3.45
2022-07-31T04:11:31.674Z,3.85
2022-07-31T04:15:39.489Z,3.17
2022-07-31T04:19:43.374Z,3.30
2022-07-31T04:23:49.545Z,3.88
2022-07-31T04:27:53.665Z,3.72
2022-07-31T04:31:59.267Z,3.35
2022-07-31T04:36:03.222Z,3.17
2022-07-31T04:40:07.085Z,2.70
2022-07-31T04:44:11.689Z,3.13
2022-07-31T04:48:16.301Z,3.45
2022-07-31T04:52:20.367Z,2.65
2022-07-31T04:56:36.798Z,3.50
2022-07-31T05:00:40.512Z,3.38
2022-07-31T05:04:45.701Z,3.65
2022-07-31T05:08:55.924Z,3.60
2022-07-31T05:12:59.581Z,3.53
2022-07-31T05:17:03.200Z,3.17
2022-07-31T05:21:07.973Z,3.25
2022-07-31T05:25:11.470Z,3.33
2022-07-31T05:29:14.771Z,3.47
2022-07-31T05:33:18.678Z,3.13
2022-07-31T05:37:23.952Z,4.22
2022-07-31T05:41:27.367Z,4.00
2022-07-31T05:45:30.655Z,3.80
2022-07-31T05:49:34.186Z,2.50
2022-07-31T05:53:38.809Z,3.10
2022-07-31T05:57:43.859Z,3.17
2022-07-31T06:01:47.508Z,4.15
2022-07-31T06:05:51.434Z,2.97
2022-07-31T06:09:56.071Z,3.25
2022-07-31T06:13:59.826Z,3.88
2022-07-31T06:18:03.363Z,3.45
2022-07-31T06:22:06.826Z,3.63
2022-07-31T06:26:12.372Z,3.45
2022-07-31T06:30:16.726Z,3.05
2022-07-31T06:34:20.135Z,3.50
2022-07-31T06:38:25.244Z,3.03
2022-07-31T06:42:30.264Z,3.17
2022-07-31T06:46:33.503Z,2.90
2022-07-31T06:50:36.904Z,2.97
2022-07-31T06:54:40.237Z,3.42
2022-07-31T06:58:45.038Z,3.25
2022-07-31T07:02:48.700Z,2.83
2022-07-31T07:06:51.894Z,3.17
2022-07-31T07:10:55.255Z,3.30
2022-07-31T07:14:59.722Z,2.83
2022-07-31T07:19:03.562Z,3.10
2022-07-31T07:23:07.167Z,3.38
2022-07-31T07:27:10.822Z,3.00
2022-07-31T07:31:15.831Z,2.72
2022-07-31T07:35:18.995Z,2.60
2022-07-31T07:39:22.179Z,2.40
2022-07-31T07:43:25.645Z,2.20
2022-07-31T07:48:05.099Z,2.53
2022-07-31T07:51:58.997Z,2.72
2022-07-31T07:56:03.643Z,2.30
2022-07-31T08:00:10.244Z,3.00
2022-07-31T08:04:14.820Z,2.75
2022-07-31T08:08:18.515Z,2.45
2022-07-31T08:12:22.210Z,1.88
2022-07-31T08:16:25.536Z,2.20
2022-07-31T08:20:30.345Z,2.50
2022-07-31T08:24:34.014Z,1.67
2022-07-31T08:28:37.396Z,1.90
2022-07-31T08:32:41.015Z,1.73
2022-07-31T08:36:46.122Z,2.17
2022-07-31T08:40:49.404Z,1.55
2022-07-31T08:44:52.938Z,2.05
2022-07-31T08:48:58.818Z,1.50
2022-07-31T08:53:04.685Z,1.88
2022-07-31T08:57:12.778Z,1.50
2022-07-31T09:01:17.097Z,1.65
2022-07-31T09:05:20.698Z,1.42
2022-07-31T09:09:26.081Z,1.88
2022-07-31T09:14:02.189Z,1.83
2022-07-31T09:18:17.625Z,1.50
2022-07-31T09:22:22.768Z,1.45
2022-07-31T09:26:36.272Z,1.50
2022-07-31T09:30:56.128Z,1.60
2022-07-31T09:35:09.173Z,1.33
2022-07-31T09:39:26.951Z,1.58
2022-07-31T09:43:33.101Z,1.35
2022-07-31T09:47:36.692Z,1.30
2022-07-31T09:51:41.540Z,1.20
2022-07-31T09:55:50.985Z,1.27
2022-07-31T09:59:56.821Z,1.45
2022-07-31T10:04:04.352Z,1.23
2022-07-31T10:08:08.226Z,1.52
2022-07-31T10:12:20.584Z,1.35
2022-07-31T10:16:29.782Z,1.58
2022-07-31T10:20:36.033Z,1.50
2022-07-31T10:24:48.824Z,1.90
2022-07-31T10:28:52.597Z,1.60
2022-07-31T10:32:58.748Z,1.40
2022-07-31T10:37:11.098Z,1.73
2022-07-31T10:41:23.073Z,1.60
2022-07-31T10:45:27.214Z,1.30
2022-07-31T10:49:42.766Z,1.58
2022-07-31T10:53:56.036Z,1.58
2022-07-31T10:58:08.986Z,1.80
2022-07-31T11:02:21.798Z,1.33
2022-07-31T11:06:41.472Z,1.58
2022-07-31T11:11:03.632Z,1.30
2022-07-31T11:15:19.803Z,1.77
2022-07-31T11:19:23.406Z,1.67
2022-07-31T11:23:32.161Z,1.52
2022-07-31T11:27:36.426Z,2.10
2022-07-31T11:31:39.488Z,2.22
2022-07-31T11:35:43.474Z,2.38
2022-07-31T11:39:52.472Z,1.50
2022-07-31T11:43:57.617Z,2.38
2022-07-31T11:48:10.942Z,1.88
2022-07-31T11:52:30.756Z,1.70
2022-07-31T11:56:41.472Z,1.88
2022-07-31T12:00:50.065Z,2.17
2022-07-31T12:04:53.818Z,2.05
2022-07-31T12:08:57.546Z,1.92
2022-07-31T12:13:03.617Z,1.80
2022-07-31T12:17:08.559Z,1.52
2022-07-31T12:21:12.367Z,1.10
2022-07-31T12:25:15.922Z,1.83
2022-07-31T12:29:21.786Z,1.50
2022-07-31T12:33:25.384Z,1.40
2022-07-31T12:37:28.452Z,1.42
2022-07-31T12:41:33.149Z,1.30
2022-07-31T12:45:40.376Z,1.50
2022-07-31T12:49:43.501Z,1.30
2022-07-31T12:53:47.218Z,1.60
2022-07-31T12:57:52.213Z,1.02
2022-07-31T13:01:57.778Z,1.50
2022-07-31T13:06:01.187Z,1.20
2022-07-31T13:10:19.868Z,1.65
2022-07-31T13:14:25.912Z,1.70
2022-07-31T13:18:32.537Z,1.40
2022-07-31T13:22:36.254Z,1.23
2022-07-31T13:26:39.581Z,1.60
2022-07-31T13:30:43.392Z,1.48
2022-07-31T13:34:48.375Z,1.33
2022-07-31T13:39:11.970Z,1.50
2022-07-31T13:43:15.942Z,1.60
2022-07-31T13:47:19.051Z,1.70
2022-07-31T13:51:28.559Z,1.40
2022-07-31T13:55:32.286Z,1.33
2022-07-31T13:59:36.722Z,1.25
2022-07-31T14:03:39.994Z,1.73
2022-07-31T14:07:47.916Z,1.80
2022-07-31T14:11:56.119Z,1.80
2022-07-31T14:15:59.391Z,1.95
2022-07-31T14:20:02.840Z,1.83
2022-07-31T14:24:08.462Z,1.63
2022-07-31T14:28:12.605Z,1.77
2022-07-31T14:32:15.925Z,1.42
2022-07-31T14:36:19.440Z,1.70
2022-07-31T14:40:24.514Z,1.60
2022-07-31T14:44:28.923Z,1.30
2022-07-31T14:48:32.290Z,1.23
2022-07-31T14:52:35.711Z,1.33
2022-07-31T14:57:00.425Z,1.60
2022-07-31T15:01:04.376Z,1.48
2022-07-31T15:06:40.139Z,1.40
2022-07-31T15:09:32.671Z,1.05
2022-07-31T15:13:38.977Z,1.23
2022-07-31T15:17:42.826Z,1.20
2022-07-31T15:22:15.728Z,1.40
2022-07-31T15:26:10.550Z,1.58
2022-07-31T15:30:15.884Z,1.60
2022-07-31T15:34:19.556Z,1.15
2022-07-31T15:38:23.566Z,1.15
2022-07-31T15:42:27.007Z,1.52
2022-07-31T15:46:32.218Z,1.30
2022-07-31T15:50:35.652Z,1.70
2022-07-31T15:54:39.479Z,1.13
2022-07-31T15:58:43.268Z,1.20
2022-07-31T16:02:48.169Z,1.60
2022-07-31T16:06:51.922Z,0.80
2022-07-31T16:10:55.881Z,1.20
2022-07-31T16:14:59.713Z,1.20
2022-07-31T16:19:05.216Z,1.50
2022-07-31T16:23:14.114Z,1.30
2022-07-31T16:27:17.972Z,1.77
2022-07-31T16:31:30.728Z,1.27
2022-07-31T16:35:35.770Z,1.58
2022-07-31T16:39:39.232Z,1.00
2022-07-31T16:43:49.594Z,1.48
2022-07-31T16:47:54.209Z,1.50
2022-07-31T16:51:59.066Z,1.50
2022-07-31T16:57:06.976Z,1.77
2022-07-31T17:02:17.221Z,1.63
2022-07-31T17:08:05.556Z,1.42
2022-07-31T17:12:53.308Z,1.52
2022-07-31T17:18:32.481Z,0.98
2022-07-31T17:23:43.691Z,1.50
2022-07-31T17:28:28.105Z,1.40
2022-07-31T17:38:04.083Z,1.73
2022-07-31T17:42:09.637Z,1.65
2022-07-31T17:46:17.626Z,1.38
2022-07-31T17:50:31.993Z,1.50
2022-07-31T17:54:35.531Z,1.50
2022-07-31T17:58:40.658Z,1.80
2022-07-31T18:02:44.200Z,1.35
2022-07-31T18:06:51.402Z,1.83
2022-07-31T18:10:57.579Z,1.55
2022-07-31T18:15:02.929Z,1.55
2022-07-31T18:19:06.361Z,1.30
2022-07-31T18:23:10.078Z,1.75
2022-07-31T18:27:13.535Z,1.83
2022-07-31T18:31:32.281Z,1.45
2022-07-31T18:35:39.300Z,1.42
2022-07-31T18:39:48.183Z,1.45
2022-07-31T18:43:52.821Z,1.60
2022-07-31T18:47:57.633Z,1.80
2022-07-31T18:52:01.295Z,1.38
2022-07-31T18:56:05.553Z,1.33
2022-07-31T19:00:11.243Z,1.75
2022-07-31T19:04:16.531Z,1.98
2022-07-31T19:08:20.296Z,1.60
2022-07-31T19:12:24.205Z,1.55
2022-07-31T19:16:29.204Z,1.50
2022-07-31T19:20:56.450Z,1.20
2022-07-31T19:24:58.668Z,1.90
2022-07-31T19:29:02.000Z,1.73
2022-07-31T19:33:05.978Z,1.55
2022-07-31T19:37:11.120Z,2.13
2022-07-31T19:41:16.373Z,1.25
2022-07-31T19:45:20.038Z,1.80
2022-07-31T19:49:23.371Z,1.42
2022-07-31T19:53:28.453Z,1.60
2022-07-31T19:57:32.109Z,1.35
2022-07-31T20:01:35.785Z,1.48
2022-07-31T20:05:39.420Z,1.25
2022-07-31T20:09:44.426Z,1.50
2022-07-31T20:13:48.234Z,1.17
2022-07-31T20:17:52.155Z,1.58
2022-07-31T20:21:55.802Z,1.48
2022-07-31T20:26:00.794Z,1.30
2022-07-31T20:30:04.912Z,1.10
2022-07-31T20:34:08.588Z,1.23
2022-07-31T20:38:15.750Z,1.27
2022-07-31T20:42:21.117Z,1.33
2022-07-31T20:46:24.519Z,1.70
2022-07-31T20:50:28.332Z,1.35
2022-07-31T20:54:34.597Z,1.50
2022-07-31T20:58:41.580Z,1.40
2022-07-31T21:02:47.190Z,1.63
2022-07-31T21:06:53.009Z,1.05
2022-07-31T21:10:56.723Z,1.10
2022-07-31T21:15:18.779Z,1.50
2022-07-31T21:19:34.058Z,1.73
2022-07-31T21:23:37.366Z,1.38
2022-07-31T21:27:43.116Z,1.00
2022-07-31T21:31:50.234Z,1.20
2022-07-31T21:35:53.658Z,1.02
2022-07-31T21:39:57.790Z,1.30
2022-07-31T21:44:01.606Z,1.42
2022-07-31T21:48:11.592Z,1.52
2022-07-31T21:52:18.129Z,1.58
2022-07-31T21:56:21.673Z,1.38
2022-07-31T22:00:26.240Z,1.15
2022-07-31T22:04:34.742Z,1.63
2022-07-31T22:08:38.669Z,1.15
2022-07-31T22:12:41.929Z,1.65
2022-07-31T22:16:45.590Z,1.20
2022-07-31T22:20:51.119Z,1.35
2022-07-31T22:24:55.208Z,1.67
2022-07-31T22:28:59.596Z,1.77
2022-07-31T22:33:03.765Z,1.55
2022-07-31T22:37:09.938Z,1.50
2022-07-31T22:41:15.483Z,1.10
2022-07-31T22:45:19.540Z,1.60
2022-07-31T22:49:23.960Z,1.70
2022-07-31T22:53:29.001Z,1.58
2022-07-31T22:57:32.481Z,1.38
2022-07-31T23:01:36.161Z,1.55
2022-07-31T23:06:03.633Z,1.25
2022-07-31T23:10:05.327Z,1.33
2022-07-31T23:14:09.094Z,1.55
2022-07-31T23:18:12.130Z,1.35
2022-07-31T23:22:15.976Z,1.33
2022-07-31T23:26:24.604Z,1.40
2022-07-31T23:30:27.621Z,1.67
2022-07-31T23:34:31.109Z,1.00
2022-07-31T23:38:34.213Z,1.00
2022-07-31T23:42:42.253Z,1.50
2022-07-31T23:46:45.380Z,1.45
2022-07-31T23:50:53.129Z,1.58
2022-07-31T23:54:56.255Z,1.40
2022-07-31T23:59:01.193Z,1.55
